Time;durP1;ratioP1;P1;durP2;ratioP2;P2;SDS_P1;SDS_P2;PMS_P1;PMS_P2;Temp;Humidity;BMP_temperature;BMP_pressure;BME280_temperature;BME280_humidity;BME280_pressure;Samples;Min_cycle;Max_cycle;Signal;HPM_P1;HPM_P2
2022/04/10 00:01:43;;;;;;;7.18;3.72;;;;;;;;;;5099069;28;20393;-81
2022/04/10 00:04:09;;;;;;;6.93;3.75;;;;;;;;;;5101204;28;20362;-81
2022/04/10 00:06:36;;;;;;;8.23;3.83;;;;;;;;;;5098886;28;20777;-81
2022/04/10 00:09:02;;;;;;;8.02;3.90;;;;;;;;;;5081136;28;20881;-80
2022/04/10 00:11:29;;;;;;;7.93;3.95;;;;;;;;;;5100165;28;20449;-81
2022/04/10 00:13:55;;;;;;;8.73;4.22;;;;;;;;;;5102256;28;20390;-80
2022/04/10 00:16:22;;;;;;;9.60;4.63;;;;;;;;;;5090039;28;20368;-80
2022/04/10 00:18:48;;;;;;;8.32;4.20;;;;;;;;;;5090387;28;20854;-80
2022/04/10 00:21:14;;;;;;;9.38;4.78;;;;;;;;;;5090654;28;20734;-80
2022/04/10 00:23:40;;;;;;;6.72;4.38;;;;;;;;;;5090603;28;20380;-81
2022/04/10 00:26:06;;;;;;;8.20;4.80;;;;;;;;;;5090656;28;20377;-80
2022/04/10 00:28:32;;;;;;;8.70;4.70;;;;;;;;;;5072283;28;20382;-80
2022/04/10 00:30:58;;;;;;;7.75;4.30;;;;;;;;;;5089316;28;20468;-81
2022/04/10 00:33:24;;;;;;;6.60;4.18;;;;;;;;;;5072173;28;20424;-81
2022/04/10 00:35:50;;;;;;;6.60;4.22;;;;;;;;;;5090713;28;20865;-81
2022/04/10 00:38:16;;;;;;;7.35;4.45;;;;;;;;;;5073166;28;20873;-81
2022/04/10 00:40:43;;;;;;;6.75;4.50;;;;;;;;;;5071162;28;20467;-81
2022/04/10 00:43:09;;;;;;;7.72;5.03;;;;;;;;;;5089559;28;20376;-81
2022/04/10 00:45:35;;;;;;;9.10;5.05;;;;;;;;;;5070515;28;20468;-80
2022/04/10 00:48:00;;;;;;;8.57;4.50;;;;;;;;;;5071234;28;20368;-81
2022/04/10 00:50:27;;;;;;;7.63;4.57;;;;;;;;;;5089626;28;20864;-80
2022/04/10 00:52:53;;;;;;;9.20;4.53;;;;;;;;;;5089303;28;20869;-81
2022/04/10 00:55:19;;;;;;;10.10;4.90;;;;;;;;;;5070977;28;20460;-81
2022/04/10 00:57:46;;;;;;;6.75;4.53;;;;;;;;;;5089490;28;20411;-81
2022/04/10 01:00:12;;;;;;;11.13;4.72;;;;;;;;;;5089208;28;20718;-80
2022/04/10 01:02:41;;;;;;;10.05;4.28;;;;;;;;;;5090337;28;20376;-81
2022/04/10 01:05:07;;;;;;;9.07;4.47;;;;;;;;;;5072276;28;20373;-80
2022/04/10 01:07:34;;;;;;;9.73;4.50;;;;;;;;;;5071221;28;20470;-80
2022/04/10 01:10:00;;;;;;;9.05;4.65;;;;;;;;;;5071084;28;20384;-81
2022/04/10 01:12:28;;;;;;;8.43;4.70;;;;;;;;;;5089875;28;20392;-81
2022/04/10 01:14:54;;;;;;;8.13;4.38;;;;;;;;;;5088112;28;20405;-80
2022/04/10 01:17:20;;;;;;;10.55;4.50;;;;;;;;;;5089498;28;20460;-82
2022/04/10 01:19:46;;;;;;;10.35;4.68;;;;;;;;;;5088474;28;20395;-81
2022/04/10 01:22:26;;;;;;;8.20;4.87;;;;;;;;;;5089515;28;20481;-81
2022/04/10 01:24:52;;;;;;;11.60;5.53;;;;;;;;;;5070063;28;20376;-81
2022/04/10 01:27:18;;;;;;;8.95;4.82;;;;;;;;;;5088630;28;20388;-81
2022/04/10 01:29:44;;;;;;;9.70;4.75;;;;;;;;;;5088424;28;20399;-81
2022/04/10 01:32:10;;;;;;;8.73;4.07;;;;;;;;;;5088593;28;20400;-82
2022/04/10 01:34:38;;;;;;;8.05;4.28;;;;;;;;;;5089155;28;20464;-81
2022/04/10 01:37:04;;;;;;;9.13;4.25;;;;;;;;;;5088928;28;20360;-81
2022/04/10 01:39:30;;;;;;;10.53;4.80;;;;;;;;;;5090303;28;20372;-80
2022/04/10 01:41:56;;;;;;;9.77;4.63;;;;;;;;;;5088668;28;20467;-80
2022/04/10 01:44:22;;;;;;;10.50;5.30;;;;;;;;;;5089576;28;20950;-80
2022/04/10 01:46:48;;;;;;;10.50;5.13;;;;;;;;;;5088959;28;20405;-80
2022/04/10 01:49:15;;;;;;;10.48;4.80;;;;;;;;;;5088570;28;20361;-80
2022/04/10 01:51:41;;;;;;;12.68;5.55;;;;;;;;;;5070233;28;20437;-81
2022/04/10 01:54:08;;;;;;;9.05;4.97;;;;;;;;;;5088286;28;20767;-80
2022/04/10 01:56:34;;;;;;;7.90;5.20;;;;;;;;;;5088805;28;20849;-81
2022/04/10 01:59:00;;;;;;;9.65;4.53;;;;;;;;;;5070593;28;20381;-81
2022/04/10 02:01:26;;;;;;;9.98;5.22;;;;;;;;;;5088561;28;20465;-81
2022/04/10 02:03:52;;;;;;;12.75;5.80;;;;;;;;;;5088489;28;20459;-81
2022/04/10 02:06:18;;;;;;;12.60;5.97;;;;;;;;;;5070203;28;20369;-81
2022/04/10 02:08:44;;;;;;;9.45;6.00;;;;;;;;;;5069993;28;20384;-81
2022/04/10 02:11:14;;;;;;;12.93;5.72;;;;;;;;;;5088099;28;20467;-83
2022/04/10 02:13:41;;;;;;;10.73;5.78;;;;;;;;;;5088006;28;20408;-81
2022/04/10 02:16:08;;;;;;;8.63;5.93;;;;;;;;;;5069903;28;20372;-81
2022/04/10 02:18:34;;;;;;;10.82;5.95;;;;;;;;;;5070142;28;20931;-81
2022/04/10 02:21:00;;;;;;;12.73;5.93;;;;;;;;;;5088486;28;20369;-81
2022/04/10 02:23:26;;;;;;;10.82;6.30;;;;;;;;;;5087980;28;20438;-81
2022/04/10 02:25:52;;;;;;;10.68;6.28;;;;;;;;;;5070328;28;20399;-80
2022/04/10 02:28:18;;;;;;;9.82;6.18;;;;;;;;;;5070004;28;20380;-81
2022/04/10 02:30:44;;;;;;;11.43;6.57;;;;;;;;;;5089492;28;20801;-82
2022/04/10 02:33:10;;;;;;;14.20;6.43;;;;;;;;;;5091471;28;20443;-82
2022/04/10 02:35:36;;;;;;;11.90;6.72;;;;;;;;;;5091984;28;20360;-81
2022/04/10 02:38:02;;;;;;;11.40;6.72;;;;;;;;;;5091749;28;20387;-81
2022/04/10 02:40:28;;;;;;;12.82;6.90;;;;;;;;;;5092730;28;20360;-81
2022/04/10 02:42:54;;;;;;;10.43;6.57;;;;;;;;;;5074028;28;20368;-81
2022/04/10 02:45:20;;;;;;;11.38;6.10;;;;;;;;;;5072975;28;20885;-81
2022/04/10 02:47:46;;;;;;;14.40;6.35;;;;;;;;;;5074475;28;20380;-82
2022/04/10 02:50:13;;;;;;;14.35;6.40;;;;;;;;;;5076471;28;20385;-82
2022/04/10 02:52:40;;;;;;;9.98;6.18;;;;;;;;;;5076518;28;20747;-81
2022/04/10 02:55:08;;;;;;;14.50;6.45;;;;;;;;;;5091938;28;20803;-81
2022/04/10 02:57:34;;;;;;;10.15;6.03;;;;;;;;;;5074834;28;20501;-81
2022/04/10 03:00:00;;;;;;;12.10;6.40;;;;;;;;;;5073060;28;20412;-81
2022/04/10 03:02:26;;;;;;;12.13;6.40;;;;;;;;;;5091320;28;20392;-81
2022/04/10 03:04:52;;;;;;;15.20;6.70;;;;;;;;;;5073193;28;20816;-82
2022/04/10 03:07:18;;;;;;;12.60;6.43;;;;;;;;;;5073555;28;20391;-81
2022/04/10 03:09:44;;;;;;;12.85;6.45;;;;;;;;;;5073548;28;20377;-81
2022/04/10 03:12:10;;;;;;;14.00;6.50;;;;;;;;;;5073030;28;20408;-81
2022/04/10 03:14:37;;;;;;;14.07;7.35;;;;;;;;;;5091128;28;20360;-81
2022/04/10 03:17:03;;;;;;;15.52;6.85;;;;;;;;;;5073071;28;20384;-81
2022/04/10 03:19:29;;;;;;;15.27;6.82;;;;;;;;;;5073101;28;20372;-80
2022/04/10 03:21:55;;;;;;;11.93;6.77;;;;;;;;;;5072313;28;20389;-82
2022/04/10 03:24:21;;;;;;;12.40;6.80;;;;;;;;;;5091160;28;20376;-82
2022/04/10 03:26:47;;;;;;;17.92;7.43;;;;;;;;;;5072895;28;20882;-81
2022/04/10 03:29:13;;;;;;;13.05;6.57;;;;;;;;;;5073539;28;20750;-81
2022/04/10 03:31:39;;;;;;;11.82;6.53;;;;;;;;;;5090976;28;20383;-82
2022/04/10 03:34:05;;;;;;;13.13;6.55;;;;;;;;;;5072460;28;20754;-81
2022/04/10 03:36:32;;;;;;;11.27;5.87;;;;;;;;;;5091066;28;20396;-82
2022/04/10 03:38:58;;;;;;;11.68;6.43;;;;;;;;;;5091872;28;20867;-81
2022/04/10 03:41:24;;;;;;;14.90;6.35;;;;;;;;;;5090652;28;20467;-83
2022/04/10 03:43:50;;;;;;;16.20;6.78;;;;;;;;;;5091779;28;20360;-80
2022/04/10 03:46:16;;;;;;;11.33;6.17;;;;;;;;;;5073020;28;20585;-81
2022/04/10 03:48:42;;;;;;;16.63;6.90;;;;;;;;;;5091547;28;20381;-81
2022/04/10 03:51:08;;;;;;;12.52;6.47;;;;;;;;;;5072353;28;20376;-82
2022/04/10 03:53:34;;;;;;;14.10;6.43;;;;;;;;;;5090692;28;20395;-81
2022/04/10 03:56:00;;;;;;;12.47;6.03;;;;;;;;;;5091243;28;20372;-81
2022/04/10 03:58:26;;;;;;;12.52;6.15;;;;;;;;;;5072106;28;20376;-82
2022/04/10 04:00:52;;;;;;;14.07;6.10;;;;;;;;;;5090856;28;20368;-81
2022/04/10 04:03:18;;;;;;;11.85;5.85;;;;;;;;;;5089900;28;20394;-81
2022/04/10 04:05:44;;;;;;;10.68;5.53;;;;;;;;;;5090221;28;20469;-81
2022/04/10 04:08:10;;;;;;;10.00;5.43;;;;;;;;;;5090110;28;20783;-81
2022/04/10 04:10:36;;;;;;;14.52;5.68;;;;;;;;;;5090373;28;20379;-80
2022/04/10 04:13:02;;;;;;;13.68;5.90;;;;;;;;;;5090333;28;20404;-83
2022/04/10 04:15:28;;;;;;;13.88;5.13;;;;;;;;;;5071400;28;20908;-81
2022/04/10 04:17:54;;;;;;;11.93;5.85;;;;;;;;;;5110512;28;20373;-82
2022/04/10 04:20:20;;;;;;;13.40;5.53;;;;;;;;;;5110651;28;20555;-82
2022/04/10 04:22:48;;;;;;;15.15;6.30;;;;;;;;;;5092821;28;20457;-81
2022/04/10 04:25:15;;;;;;;15.73;6.43;;;;;;;;;;5093392;28;20486;-81
2022/04/10 04:27:41;;;;;;;13.95;6.22;;;;;;;;;;5092008;28;20398;-82
2022/04/10 04:30:07;;;;;;;12.77;5.63;;;;;;;;;;5110558;28;20367;-82
2022/04/10 04:32:33;;;;;;;10.27;5.43;;;;;;;;;;5092335;28;20471;-81
2022/04/10 04:34:59;;;;;;;14.98;6.63;;;;;;;;;;5109445;28;20410;-82
2022/04/10 04:37:25;;;;;;;14.10;5.90;;;;;;;;;;5110990;28;20397;-81
2022/04/10 04:39:51;;;;;;;15.93;6.20;;;;;;;;;;5111000;28;20863;-81
2022/04/10 04:42:17;;;;;;;11.97;6.33;;;;;;;;;;5093554;28;20367;-82
2022/04/10 04:44:43;;;;;;;14.45;5.72;;;;;;;;;;5109753;28;20362;-82
2022/04/10 04:47:09;;;;;;;14.95;6.00;;;;;;;;;;5110543;28;20405;-81
2022/04/10 04:49:35;;;;;;;13.27;5.82;;;;;;;;;;5091250;28;20393;-81
2022/04/10 04:52:01;;;;;;;16.48;6.18;;;;;;;;;;5109495;28;20371;-81
2022/04/10 04:54:27;;;;;;;12.05;5.32;;;;;;;;;;5090682;28;20382;-80
2022/04/10 04:56:53;;;;;;;14.77;6.00;;;;;;;;;;5109790;28;20421;-82
2022/04/10 04:59:19;;;;;;;16.55;5.68;;;;;;;;;;5091433;28;20398;-81
2022/04/10 05:01:45;;;;;;;11.50;5.13;;;;;;;;;;5091226;28;20402;-82
2022/04/10 05:04:12;;;;;;;13.63;5.50;;;;;;;;;;5109778;28;20371;-81
2022/04/10 05:06:38;;;;;;;14.40;6.05;;;;;;;;;;5091944;28;20358;-82
2022/04/10 05:09:05;;;;;;;12.88;5.70;;;;;;;;;;5109397;28;20373;-81
2022/04/10 05:11:31;;;;;;;16.37;5.17;;;;;;;;;;5108885;28;20781;-81
2022/04/10 05:13:59;;;;;;;12.97;5.00;;;;;;;;;;5090675;28;21335;-81
2022/04/10 05:16:25;;;;;;;10.85;5.03;;;;;;;;;;5108936;28;20370;-81
2022/04/10 05:18:51;;;;;;;15.00;5.15;;;;;;;;;;5109520;28;20379;-81
2022/04/10 05:21:17;;;;;;;13.43;5.45;;;;;;;;;;5109679;28;20420;-80
2022/04/10 05:23:43;;;;;;;13.15;5.38;;;;;;;;;;5110123;28;20375;-81
2022/04/10 05:26:09;;;;;;;11.82;4.97;;;;;;;;;;5109890;28;20479;-82
2022/04/10 05:28:35;;;;;;;14.40;5.13;;;;;;;;;;5093769;28;20822;-82
2022/04/10 05:31:02;;;;;;;13.27;5.07;;;;;;;;;;5093089;28;20390;-81
2022/04/10 05:33:28;;;;;;;11.17;5.27;;;;;;;;;;5093652;28;20422;-80
2022/04/10 05:35:55;;;;;;;12.23;4.55;;;;;;;;;;5091509;28;20431;-82
2022/04/10 05:38:22;;;;;;;11.65;5.22;;;;;;;;;;5109102;28;21087;-82
2022/04/10 05:40:52;;;;;;;13.30;5.15;;;;;;;;;;5090849;28;20435;-82
2022/04/10 05:43:19;;;;;;;11.60;4.75;;;;;;;;;;5091148;28;20458;-82
2022/04/10 05:45:45;;;;;;;11.27;4.95;;;;;;;;;;5090647;28;20367;-81
2022/04/10 05:48:11;;;;;;;16.43;4.97;;;;;;;;;;5109299;28;20370;-81
2022/04/10 05:50:37;;;;;;;13.07;4.53;;;;;;;;;;5109962;28;20879;-81
2022/04/10 05:53:03;;;;;;;11.85;4.43;;;;;;;;;;5108950;28;20422;-82
2022/04/10 05:55:29;;;;;;;11.10;4.57;;;;;;;;;;5091126;28;20395;-81
2022/04/10 05:57:55;;;;;;;12.77;5.30;;;;;;;;;;5090799;28;20847;-82
2022/04/10 06:00:23;;;;;;;11.93;4.90;;;;;;;;;;5110194;28;20370;-81
2022/04/10 06:02:51;;;;;;;12.88;5.05;;;;;;;;;;5081644;28;20415;-83
2022/04/10 06:05:18;;;;;;;13.68;4.93;;;;;;;;;;5095854;28;20372;-82
2022/04/10 06:07:44;;;;;;;14.38;4.72;;;;;;;;;;5083948;28;20385;-82
2022/04/10 06:10:11;;;;;;;12.45;4.88;;;;;;;;;;5100663;28;20372;-83
2022/04/10 06:12:37;;;;;;;13.43;5.03;;;;;;;;;;5102558;28;20424;-84
2022/04/10 06:15:04;;;;;;;11.77;5.13;;;;;;;;;;5102196;28;20380;-83
2022/04/10 06:17:30;;;;;;;11.02;4.28;;;;;;;;;;5100593;28;20376;-83
2022/04/10 06:19:59;;;;;;;10.70;4.47;;;;;;;;;;5101442;28;20370;-83
2022/04/10 06:22:25;;;;;;;14.38;5.10;;;;;;;;;;5083956;28;20439;-82
2022/04/10 06:24:52;;;;;;;11.60;4.85;;;;;;;;;;5104678;28;20373;-83
2022/04/10 06:27:19;;;;;;;13.98;4.85;;;;;;;;;;5105304;28;20415;-83
2022/04/10 06:29:45;;;;;;;14.88;5.30;;;;;;;;;;5085931;28;20804;-83
2022/04/10 06:32:11;;;;;;;11.48;4.90;;;;;;;;;;5107958;28;20399;-81
2022/04/10 06:34:37;;;;;;;11.23;4.70;;;;;;;;;;5102116;28;20908;-83
2022/04/10 06:37:03;;;;;;;12.93;5.80;;;;;;;;;;5083405;28;20370;-82
2022/04/10 06:39:29;;;;;;;11.07;4.43;;;;;;;;;;5085645;28;20927;-83
2022/04/10 06:41:55;;;;;;;12.60;4.97;;;;;;;;;;5104295;28;20521;-83
2022/04/10 06:44:21;;;;;;;15.45;5.43;;;;;;;;;;5101098;28;20376;-83
2022/04/10 06:46:47;;;;;;;14.02;4.82;;;;;;;;;;5081778;28;20375;-83
2022/04/10 06:49:13;;;;;;;12.43;4.63;;;;;;;;;;5100846;28;20378;-83
2022/04/10 06:51:41;;;;;;;13.07;5.28;;;;;;;;;;5102895;28;20380;-83
2022/04/10 06:54:07;;;;;;;10.93;4.93;;;;;;;;;;5101132;28;20415;-84
2022/04/10 06:56:33;;;;;;;13.13;4.78;;;;;;;;;;5103246;28;20363;-84
2022/04/10 06:58:59;;;;;;;13.57;5.18;;;;;;;;;;5101803;28;20364;-85
2022/04/10 07:01:25;;;;;;;11.93;5.07;;;;;;;;;;5097960;28;20364;-82
2022/04/10 07:03:51;;;;;;;14.97;4.73;;;;;;;;;;5082155;28;20448;-83
2022/04/10 07:06:17;;;;;;;12.23;4.43;;;;;;;;;;5083866;28;20469;-84
2022/04/10 07:08:43;;;;;;;11.02;4.65;;;;;;;;;;5085655;28;20367;-83
2022/04/10 07:11:10;;;;;;;11.52;5.18;;;;;;;;;;5104245;28;20363;-83
2022/04/10 07:13:36;;;;;;;9.30;4.70;;;;;;;;;;5104583;28;20499;-84
2022/04/10 07:16:02;;;;;;;13.10;4.73;;;;;;;;;;5082906;28;20380;-83
2022/04/10 07:18:28;;;;;;;11.73;4.70;;;;;;;;;;5099350;28;20374;-83
2022/04/10 07:20:54;;;;;;;11.98;4.35;;;;;;;;;;5073134;28;20380;-83
2022/04/10 07:23:43;;;;;;;10.73;4.82;;;;;;;;;;5065416;28;20387;-83
2022/04/10 07:26:14;;;;;;;12.60;5.07;;;;;;;;;;5076286;28;21133;-85
2022/04/10 07:28:40;;;;;;;13.00;4.40;;;;;;;;;;5066014;28;20381;-84
2022/04/10 07:31:08;;;;;;;12.40;4.97;;;;;;;;;;5075414;28;20373;-84
2022/04/10 07:33:34;;;;;;;15.73;5.35;;;;;;;;;;5067989;28;20419;-83
2022/04/10 07:36:00;;;;;;;12.63;4.47;;;;;;;;;;5063948;28;21088;-84
2022/04/10 07:38:27;;;;;;;14.80;5.18;;;;;;;;;;5060568;28;20380;-82
2022/04/10 07:40:53;;;;;;;12.70;4.93;;;;;;;;;;5075515;28;20445;-83
2022/04/10 07:43:19;;;;;;;13.73;4.47;;;;;;;;;;5060766;28;20411;-84
2022/04/10 07:48:30;;;;;;;12.90;5.20;;;;;;;;;;5074595;28;20367;-82
2022/04/10 07:50:57;;;;;;;16.15;5.18;;;;;;;;;;5073431;28;20393;-83
2022/04/10 07:53:25;;;;;;;12.90;5.13;;;;;;;;;;5060814;28;20407;-82
2022/04/10 07:55:52;;;;;;;11.48;4.80;;;;;;;;;;5081975;28;20869;-83
2022/04/10 07:58:19;;;;;;;12.05;4.40;;;;;;;;;;5097652;28;20455;-82
2022/04/10 08:00:47;;;;;;;13.13;4.85;;;;;;;;;;5080986;28;20382;-83
2022/04/10 08:03:14;;;;;;;12.05;4.80;;;;;;;;;;5105697;28;20454;-83
2022/04/10 08:05:41;;;;;;;14.05;4.75;;;;;;;;;;5099705;28;20429;-84
2022/04/10 08:08:10;;;;;;;13.77;4.88;;;;;;;;;;5100631;28;20421;-83
2022/04/10 08:10:39;;;;;;;14.32;4.72;;;;;;;;;;5097933;28;20433;-82
2022/04/10 08:13:06;;;;;;;13.88;5.05;;;;;;;;;;5082660;28;20923;-83
2022/04/10 08:15:32;;;;;;;14.88;4.68;;;;;;;;;;5102164;28;20414;-83
2022/04/10 08:17:58;;;;;;;12.48;4.40;;;;;;;;;;5100587;28;20372;-82
2022/04/10 08:20:24;;;;;;;10.73;4.63;;;;;;;;;;5082493;28;20444;-82
2022/04/10 08:22:53;;;;;;;13.70;5.00;;;;;;;;;;5079293;28;20375;-82
2022/04/10 08:25:23;;;;;;;14.05;4.93;;;;;;;;;;5098155;28;20375;-82
2022/04/10 08:27:50;;;;;;;14.65;5.25;;;;;;;;;;5095568;28;20392;-81
2022/04/10 08:30:16;;;;;;;15.23;5.40;;;;;;;;;;5074781;28;20429;-82
2022/04/10 08:32:43;;;;;;;17.83;4.95;;;;;;;;;;5081814;28;20406;-83
2022/04/10 08:35:12;;;;;;;14.30;5.30;;;;;;;;;;5102569;28;20397;-84
2022/04/10 08:37:40;;;;;;;17.27;5.50;;;;;;;;;;5099058;28;21174;-83
2022/04/10 08:40:08;;;;;;;11.17;5.10;;;;;;;;;;5095009;28;20380;-83
2022/04/10 08:42:37;;;;;;;11.47;4.87;;;;;;;;;;5082197;28;20372;-86
2022/04/10 08:45:03;;;;;;;11.95;4.53;;;;;;;;;;5098597;28;20867;-83
2022/04/10 08:47:30;;;;;;;12.20;4.55;;;;;;;;;;5095520;28;20376;-82
2022/04/10 08:49:57;;;;;;;12.95;4.90;;;;;;;;;;5097153;28;20931;-83
2022/04/10 08:52:24;;;;;;;12.00;4.85;;;;;;;;;;5079513;28;20888;-82
2022/04/10 08:54:50;;;;;;;12.03;4.87;;;;;;;;;;5086791;28;20384;-83
2022/04/10 08:57:17;;;;;;;14.02;4.93;;;;;;;;;;5097528;28;20398;-83
2022/04/10 08:59:43;;;;;;;13.45;4.70;;;;;;;;;;5099966;28;20479;-82
2022/04/10 09:02:15;;;;;;;14.20;5.10;;;;;;;;;;5084587;28;20388;-83
2022/04/10 09:04:41;;;;;;;12.73;4.70;;;;;;;;;;5086446;28;20935;-83
2022/04/10 09:07:08;;;;;;;12.30;4.50;;;;;;;;;;5096725;28;20361;-83
2022/04/10 09:09:35;;;;;;;12.70;4.45;;;;;;;;;;5099688;28;20386;-83
2022/04/10 09:12:01;;;;;;;12.70;4.82;;;;;;;;;;5096219;28;20875;-83
2022/04/10 09:14:41;;;;;;;10.73;4.45;;;;;;;;;;5082535;28;20414;-82
2022/04/10 09:17:10;;;;;;;12.13;4.35;;;;;;;;;;5102632;28;20376;-83
2022/04/10 09:19:36;;;;;;;11.48;4.07;;;;;;;;;;5080665;28;20382;-82
2022/04/10 09:22:25;;;;;;;9.60;4.13;;;;;;;;;;5102681;28;20390;-83
2022/04/10 09:25:13;;;;;;;12.07;4.80;;;;;;;;;;5088792;28;20480;-82
2022/04/10 09:27:40;;;;;;;10.70;4.38;;;;;;;;;;5098463;28;20394;-81
2022/04/10 09:30:07;;;;;;;9.60;3.65;;;;;;;;;;5080749;28;20436;-81
2022/04/10 09:32:40;;;;;;;13.07;4.00;;;;;;;;;;5098829;28;20912;-83
2022/04/10 09:35:07;;;;;;;11.30;4.03;;;;;;;;;;5079786;28;20746;-83
2022/04/10 09:37:41;;;;;;;9.30;3.78;;;;;;;;;;5082525;28;20473;-81
2022/04/10 09:40:27;;;;;;;9.02;3.42;;;;;;;;;;5103155;28;20820;-84
2022/04/10 09:43:06;;;;;;;9.30;3.88;;;;;;;;;;5084322;28;20371;-82
2022/04/10 09:45:38;;;;;;;9.43;3.50;;;;;;;;;;5083855;28;20846;-84
2022/04/10 09:48:17;;;;;;;9.07;3.40;;;;;;;;;;5087483;28;20756;-82
2022/04/10 09:50:44;;;;;;;11.65;3.92;;;;;;;;;;5104663;28;20376;-83
2022/04/10 09:53:11;;;;;;;10.55;3.97;;;;;;;;;;5086621;28;20507;-82
2022/04/10 09:55:41;;;;;;;10.93;3.75;;;;;;;;;;5085290;28;20385;-83
2022/04/10 09:58:13;;;;;;;10.73;3.60;;;;;;;;;;5105834;28;20367;-83
2022/04/10 10:00:46;;;;;;;10.73;4.03;;;;;;;;;;5085871;28;20454;-83
2022/04/10 10:03:12;;;;;;;8.67;3.50;;;;;;;;;;5080042;28;20454;-84
2022/04/10 10:05:39;;;;;;;8.95;3.97;;;;;;;;;;5085688;28;20396;-83
2022/04/10 10:08:06;;;;;;;10.70;3.80;;;;;;;;;;5104925;28;20367;-83
2022/04/10 10:10:33;;;;;;;9.18;3.58;;;;;;;;;;5085597;28;20417;-85
2022/04/10 10:13:01;;;;;;;10.95;3.60;;;;;;;;;;5104650;28;20407;-83
2022/04/10 10:15:28;;;;;;;10.02;3.90;;;;;;;;;;5102822;27;20372;-84
2022/04/10 10:17:54;;;;;;;10.82;3.58;;;;;;;;;;5101943;28;20417;-84
2022/04/10 10:20:21;;;;;;;10.23;3.70;;;;;;;;;;5102480;28;20374;-85
2022/04/10 10:22:48;;;;;;;8.30;3.25;;;;;;;;;;5101740;28;20424;-84
2022/04/10 10:25:17;;;;;;;9.25;3.40;;;;;;;;;;5101973;28;20371;-85
2022/04/10 10:27:52;;;;;;;10.00;3.67;;;;;;;;;;5089161;28;20872;-84
2022/04/10 10:30:41;;;;;;;9.15;3.55;;;;;;;;;;5093903;28;20424;-84
2022/04/10 10:33:11;;;;;;;7.95;3.40;;;;;;;;;;5090429;28;20399;-83
2022/04/10 10:35:41;;;;;;;8.55;3.03;;;;;;;;;;5079862;28;20441;-84
2022/04/10 10:38:24;;;;;;;8.77;2.80;;;;;;;;;;5079665;28;20952;-83
2022/04/10 10:40:50;;;;;;;7.80;3.13;;;;;;;;;;5098253;28;20361;-84
2022/04/10 10:43:23;;;;;;;8.50;3.28;;;;;;;;;;5085236;28;20465;-85
2022/04/10 10:45:50;;;;;;;8.82;3.28;;;10.30;99.90;;;;;;5096406;28;20409;-84
2022/04/10 10:48:25;;;;;;;10.18;3.42;;;10.30;99.90;;;;;;5082655;28;20416;-84
2022/04/10 10:50:52;;;;;;;8.50;3.25;;;9.90;99.90;;;;;;5097148;28;20377;-85
2022/04/10 10:53:44;;;;;;;8.13;3.13;;;9.90;99.90;;;;;;5100793;28;20437;-84
2022/04/10 10:56:21;;;;;;;9.95;3.40;;;9.70;99.90;;;;;;5078651;28;20794;-84
2022/04/10 10:58:50;;;;;;;10.05;3.45;;;9.50;99.90;;;;;;5083269;28;20742;-86
2022/04/10 11:01:19;;;;;;;7.75;2.97;;;8.80;99.90;;;;;;5078281;28;20380;-84
2022/04/10 11:04:04;;;;;;;7.25;3.20;;;8.10;99.90;;;;;;5080541;28;20495;-84
2022/04/10 11:06:43;;;;;;;9.90;3.35;;;8.00;99.90;;;;;;5099450;28;20393;-84
2022/04/10 11:09:29;;;;;;;9.03;3.30;;;7.90;99.90;;;;;;5079607;28;20390;-85
2022/04/10 11:11:59;;;;;;;8.95;3.10;;;8.00;99.90;;;;;;5095738;28;20427;-85
2022/04/10 11:14:32;;;;;;;7.43;2.83;;;8.00;99.90;;;;;;5099789;28;20386;-84
2022/04/10 11:17:13;;;;;;;9.00;3.20;;;8.40;99.90;;;;;;5081919;28;20382;-85
2022/04/10 11:19:39;;;;;;;8.90;3.10;;;8.90;99.90;;;;;;5086236;28;20592;-83
2022/04/10 11:22:07;;;;;;;8.70;3.10;;;9.50;99.90;;;;;;5074494;28;20479;-83
2022/04/10 11:24:35;;;;;;;11.00;3.88;;;9.70;99.90;;;;;;5106160;28;20397;-84
2022/04/10 11:27:05;;;;;;;6.47;2.40;;;10.00;99.90;;;;;;5066607;28;20959;-83
2022/04/10 11:29:32;;;;;;;6.50;2.65;;;10.00;99.90;;;;;;5080603;28;20807;-82
2022/04/10 11:32:04;;;;;;;9.10;2.72;;;10.00;99.90;;;;;;5080362;28;20418;-82
2022/04/10 11:34:30;;;;;;;7.25;2.83;;;9.90;99.90;;;;;;5086168;28;20410;-83
2022/04/10 11:36:59;;;;;;;8.90;2.83;;;9.70;99.90;;;;;;5099753;28;20633;-83
2022/04/10 11:39:25;;;;;;;8.15;2.28;;;9.90;99.90;;;;;;5086328;28;20390;-84
2022/04/10 11:41:51;;;;;;;5.60;2.43;;;9.80;98.90;;;;;;5084715;28;20893;-82
2022/04/10 11:44:18;;;;;;;8.25;2.53;;;9.70;99.10;;;;;;5085852;28;20390;-82
2022/04/10 11:46:45;;;;;;;4.57;2.30;;;9.90;99.90;;;;;;5099407;28;20380;-83
2022/04/10 11:49:12;;;;;;;6.35;2.50;;;10.30;99.40;;;;;;5100576;28;20372;-83
2022/04/10 11:51:55;;;;;;;5.70;2.38;;;10.40;98.70;;;;;;5099909;28;20432;-83
2022/04/10 11:54:33;;;;;;;6.30;2.50;;;10.50;99.00;;;;;;5095817;28;20425;-83
2022/04/10 11:57:00;;;;;;;10.30;3.13;;;10.40;99.20;;;;;;5068615;28;20434;-83
2022/04/10 11:59:33;;;;;;;9.32;2.80;;;10.10;99.70;;;;;;5084804;28;20483;-82
2022/04/10 12:01:59;;;;;;;6.03;2.60;;;9.90;99.90;;;;;;5076411;28;20431;-83
2022/04/10 12:04:25;;;;;;;7.75;3.08;;;9.90;99.90;;;;;;5100528;28;20432;-84
2022/04/10 12:06:50;;;;;;;9.52;2.83;;;9.90;99.50;;;;;;5108525;28;20448;-83
2022/04/10 12:09:16;;;;;;;7.13;2.70;;;10.00;98.70;;;;;;5108805;28;20374;-84
2022/04/10 12:11:43;;;;;;;4.90;2.50;;;10.20;98.40;;;;;;5105749;28;20900;-83
2022/04/10 12:14:35;;;;;;;6.47;2.55;;;10.20;97.80;;;;;;5083203;28;20402;-82
2022/04/10 12:17:01;;;;;;;6.20;2.35;;;9.90;98.20;;;;;;5095377;28;20799;-83
2022/04/10 12:19:37;;;;;;;6.05;2.58;;;9.70;98.40;;;;;;5085817;28;20406;-84
2022/04/10 12:22:07;;;;;;;6.20;2.58;;;9.70;97.30;;;;;;5081728;28;20988;-84
2022/04/10 12:24:33;;;;;;;9.07;3.03;;;9.50;98.20;;;;;;5079864;28;20387;-83
2022/04/10 12:27:02;;;;;;;5.45;2.65;;;9.50;98.60;;;;;;5078341;28;20430;-83
2022/04/10 12:29:30;;;;;;;8.07;2.30;;;9.40;98.40;;;;;;5084508;28;20486;-84
2022/04/10 12:31:57;;;;;;;6.80;2.10;;;9.40;98.40;;;;;;5100565;28;20388;-83
2022/04/10 12:34:23;;;;;;;5.63;2.28;;;9.40;98.00;;;;;;5102786;28;20392;-84
2022/04/10 12:36:51;;;;;;;7.53;3.22;;;9.20;99.60;;;;;;5093217;28;20450;-83
2022/04/10 12:39:27;;;;;;;6.55;2.22;;;9.00;99.90;;;;;;5080438;28;20417;-85
2022/04/10 12:42:22;;;;;;;7.07;2.58;;;8.80;99.90;;;;;;5074879;28;20378;-83
2022/04/10 12:44:59;;;;;;;6.03;3.13;;;8.70;99.90;;;;;;5100497;28;20379;-85
2022/04/10 12:47:49;;;;;;;6.95;3.53;;;8.50;99.90;;;;;;5102990;28;20381;-83
2022/04/10 12:50:19;;;;;;;7.53;3.00;;;8.30;99.90;;;;;;5082735;28;20379;-83
2022/04/10 12:52:47;;;;;;;7.70;2.70;;;8.30;99.90;;;;;;5105235;28;20413;-83
2022/04/10 12:55:19;;;;;;;5.95;2.63;;;8.40;99.90;;;;;;5081674;28;20388;-83
2022/04/10 12:58:05;;;;;;;6.55;2.42;;;8.60;99.90;;;;;;5101387;28;20377;-83
2022/04/10 13:00:35;;;;;;;6.93;2.40;;;8.70;99.90;;;;;;5101267;28;20424;-85
2022/04/10 13:03:23;;;;;;;4.37;2.17;;;8.90;99.90;;;;;;5100881;28;20396;-84
2022/04/10 13:06:01;;;;;;;4.35;1.80;;;9.10;99.90;;;;;;5078091;28;20432;-85
2022/04/10 13:08:37;;;;;;;4.75;1.70;;;9.30;99.90;;;;;;5077081;28;20425;-83
2022/04/10 13:11:06;;;;;;;6.18;2.30;;;9.50;99.90;;;;;;5100390;28;20383;-83
2022/04/10 13:14:00;;;;;;;3.63;1.70;;;9.60;99.90;;;;;;5073794;28;20501;-84
2022/04/10 13:16:30;;;;;;;5.82;2.20;;;9.70;99.60;;;;;;5098293;28;20478;-82
2022/04/10 13:18:59;;;;;;;4.88;2.25;;;9.90;99.90;;;;;;5099931;28;20814;-84
2022/04/10 13:21:27;;;;;;;4.67;2.23;;;9.90;99.90;;;;;;5099471;28;20380;-84
2022/04/10 13:23:52;;;;;;;5.00;2.15;;;10.00;99.90;;;;;;5097692;27;20398;-84
2022/04/10 13:26:25;;;;;;;5.15;2.30;;;10.10;99.90;;;;;;5082196;28;20409;-83
2022/04/10 13:28:51;;;;;;;5.05;2.33;;;10.20;99.90;;;;;;5072043;28;20870;-83
2022/04/10 13:31:17;;;;;;;4.53;2.35;;;10.30;99.90;;;;;;5078745;28;20472;-83
2022/04/10 13:33:43;;;;;;;4.90;2.47;;;10.50;99.90;;;;;;5100140;28;20510;-85
2022/04/10 13:36:08;;;;;;;6.60;2.42;;;10.40;99.90;;;;;;5098282;28;20952;-84
2022/04/10 13:38:34;;;;;;;6.17;2.40;;;10.40;99.90;;;;;;5094819;28;20455;-83
2022/04/10 13:41:00;;;;;;;4.70;1.90;;;10.50;99.90;;;;;;5077037;28;20485;-84
2022/04/10 13:43:25;;;;;;;6.20;2.53;;;10.40;99.80;;;;;;5100862;28;20373;-84
2022/04/10 13:45:53;;;;;;;5.40;2.10;;;10.30;99.90;;;;;;5098278;28;20462;-84
2022/04/10 13:48:20;;;;;;;4.47;2.00;;;10.30;99.90;;;;;;5080445;28;20386;-84
2022/04/10 13:50:47;;;;;;;6.47;2.05;;;10.40;99.90;;;;;;5094486;28;20414;-81
2022/04/10 13:53:12;;;;;;;3.42;1.77;;;10.50;99.90;;;;;;5101233;28;20406;-82
2022/04/10 13:55:38;;;;;;;4.60;1.50;;;10.40;99.40;;;;;;5078988;28;20381;-83
2022/04/10 13:58:04;;;;;;;4.43;1.60;;;10.40;98.90;;;;;;5080065;28;20410;-83
2022/04/10 14:00:31;;;;;;;3.77;1.70;;;10.30;98.20;;;;;;5076803;28;20370;-84
2022/04/10 14:03:00;;;;;;;5.97;1.40;;;10.20;98.10;;;;;;5082936;28;20416;-82
2022/04/10 14:05:26;;;;;;;4.90;1.50;;;10.00;97.80;;;;;;5083784;28;20427;-84
2022/04/10 14:07:51;;;;;;;5.68;1.70;;;10.10;97.80;;;;;;5078384;28;21105;-83
2022/04/10 14:10:17;;;;;;;3.27;1.53;;;10.40;98.20;;;;;;5081793;28;20387;-86
2022/04/10 14:12:43;;;;;;;12.87;2.60;;;;;;;;;;5100260;28;20404;-85
2022/04/10 14:15:10;;;;;;;4.93;1.60;;;;;;;;;;5098898;28;20457;-81